createdAt,value
2019-03-11T00:02:05.400Z,46.66
2019-03-11T00:04:36.741Z,46.15
2019-03-11T00:07:08.161Z,46.01
2019-03-11T00:09:39.669Z,46.32
2019-03-11T00:12:11.003Z,46.16
2019-03-11T00:14:43.607Z,46.61
2019-03-11T00:17:15.952Z,45.92
2019-03-11T00:19:47.222Z,46.17
2019-03-11T00:22:18.654Z,46.13
2019-03-11T00:24:50.973Z,45.37
2019-03-11T00:27:22.567Z,45.84
2019-03-11T00:29:53.914Z,45.68
2019-03-11T00:32:25.027Z,45.14
2019-03-11T00:34:56.351Z,45.15
2019-03-11T00:37:27.430Z,45.05
2019-03-11T00:39:58.438Z,45.75
2019-03-11T00:42:29.500Z,45.42
2019-03-11T00:45:00.555Z,45.13
2019-03-11T00:47:31.873Z,44.47
2019-03-11T00:50:05.252Z,45.17
2019-03-11T00:52:37.602Z,44.86
2019-03-11T00:55:09.147Z,45.40
2019-03-11T00:57:40.227Z,45.21
2019-03-11T01:00:21.278Z,44.90
2019-03-11T01:02:52.805Z,45.00
2019-03-11T01:05:24.018Z,44.89
2019-03-11T01:07:55.420Z,45.17
2019-03-11T01:10:26.500Z,44.93
2019-03-11T01:12:58.246Z,45.16
2019-03-11T01:15:29.575Z,45.27
2019-03-11T01:18:01.042Z,44.93
2019-03-11T01:20:32.017Z,45.65
2019-03-11T01:23:04.608Z,46.04
2019-03-11T01:25:35.595Z,46.17
2019-03-11T01:28:07.050Z,45.91
2019-03-11T01:30:38.125Z,46.53
2019-03-11T01:33:09.139Z,45.86
2019-03-11T01:35:40.217Z,46.49
2019-03-11T01:38:11.502Z,46.20
2019-03-11T01:40:42.949Z,46.48
2019-03-11T01:43:14.035Z,46.92
2019-03-11T01:45:45.039Z,46.29
2019-03-11T01:48:16.292Z,46.39
2019-03-11T01:50:47.528Z,46.43
2019-03-11T01:53:18.796Z,46.11
2019-03-11T01:55:49.776Z,45.50
2019-03-11T01:58:20.768Z,44.87
2019-03-11T02:00:52.989Z,45.10
2019-03-11T02:03:24.578Z,44.81
2019-03-11T02:05:55.562Z,45.14
2019-03-11T02:08:26.679Z,45.39
2019-03-11T02:10:57.719Z,44.99
2019-03-11T02:13:28.700Z,45.03
2019-03-11T02:15:59.716Z,44.99
2019-03-11T02:18:30.758Z,45.20
2019-03-11T02:21:01.740Z,44.41
2019-03-11T02:23:33.317Z,44.43
2019-03-11T02:26:05.335Z,44.42
2019-03-11T02:28:36.418Z,44.60
2019-03-11T02:31:07.487Z,45.34
2019-03-11T02:33:38.850Z,45.58
2019-03-11T02:36:09.955Z,45.60
2019-03-11T02:38:42.138Z,45.27
2019-03-11T02:41:13.469Z,45.15
2019-03-11T02:44:41.915Z,45.07
2019-03-11T02:47:13.226Z,45.68
2019-03-11T02:49:44.395Z,45.76
2019-03-11T02:52:15.384Z,45.73
2019-03-11T02:54:46.482Z,46.35
2019-03-11T02:57:17.458Z,46.00
2019-03-11T02:59:48.463Z,46.47
2019-03-11T03:02:57.012Z,46.54
2019-03-11T03:05:41.459Z,46.98
2019-03-11T03:08:12.860Z,46.30
2019-03-11T03:10:44.012Z,46.28
2019-03-11T03:13:15.184Z,47.20
2019-03-11T03:15:46.540Z,47.29
2019-03-11T03:18:19.574Z,47.44
2019-03-11T03:20:50.576Z,48.56
2019-03-11T03:23:21.813Z,49.76
2019-03-11T03:25:52.848Z,49.92
2019-03-11T03:28:23.808Z,50.98
2019-03-11T03:30:55.243Z,51.96
2019-03-11T03:33:26.214Z,51.74
2019-03-11T03:35:57.589Z,52.59
2019-03-11T03:38:31.367Z,52.79
2019-03-11T03:41:03.151Z,52.75
2019-03-11T03:43:34.469Z,52.73
2019-03-11T03:46:18.083Z,54.12
2019-03-11T03:48:39.278Z,55.38
2019-03-11T03:51:10.430Z,56.26
2019-03-11T03:53:41.481Z,56.68
2019-03-11T03:56:12.767Z,57.70
2019-03-11T03:58:44.347Z,59.06
2019-03-11T04:01:15.426Z,59.78
2019-03-11T04:03:46.438Z,60.19
2019-03-11T04:06:17.592Z,59.12
2019-03-11T04:08:48.575Z,58.00
2019-03-11T04:11:19.562Z,58.49
2019-03-11T04:13:50.958Z,58.60
2019-03-11T04:16:22.027Z,58.57
2019-03-11T04:18:55.769Z,58.19
2019-03-11T04:21:26.978Z,58.50
2019-03-11T04:23:58.742Z,58.51
2019-03-11T04:26:31.279Z,59.12
2019-03-11T04:29:02.345Z,58.21
2019-03-11T04:31:34.585Z,59.11
2019-03-11T04:34:05.942Z,59.13
2019-03-11T04:36:37.207Z,59.80
2019-03-11T04:39:08.577Z,60.18
2019-03-11T04:41:39.825Z,60.92
2019-03-11T04:44:10.791Z,60.77
2019-03-11T04:46:42.745Z,60.94
2019-03-11T04:49:13.845Z,60.24
2019-03-11T04:51:44.907Z,59.66
2019-03-11T04:54:16.569Z,59.11
2019-03-11T04:56:47.831Z,58.91
2019-03-11T04:59:18.851Z,58.43
2019-03-11T05:01:49.803Z,59.34
2019-03-11T05:04:21.020Z,59.72
2019-03-11T05:06:52.520Z,60.16
2019-03-11T05:09:23.777Z,60.32
2019-03-11T05:11:54.795Z,60.07
2019-03-11T05:14:25.801Z,60.39
2019-03-11T05:16:57.302Z,60.96
2019-03-11T05:19:28.855Z,60.85
2019-03-11T05:22:00.127Z,60.23
2019-03-11T05:24:31.368Z,59.60
2019-03-11T05:27:03.010Z,58.83
2019-03-11T05:29:35.178Z,58.09
2019-03-11T05:32:06.448Z,57.50
2019-03-11T05:34:37.760Z,56.67
2019-03-11T05:37:08.753Z,57.08
2019-03-11T05:39:40.001Z,57.21
2019-03-11T05:42:11.264Z,56.39
2019-03-11T05:44:42.256Z,55.40
2019-03-11T05:47:13.581Z,55.24
2019-03-11T05:49:44.862Z,55.13
2019-03-11T05:52:16.349Z,54.85
2019-03-11T05:54:47.336Z,54.92
2019-03-11T05:57:18.351Z,54.60
2019-03-11T05:59:49.434Z,55.52
2019-03-11T06:02:20.583Z,54.60
2019-03-11T06:04:52.157Z,54.65
2019-03-11T06:07:23.990Z,54.24
2019-03-11T06:09:56.110Z,54.58
2019-03-11T06:12:27.414Z,54.97
2019-03-11T06:14:58.414Z,55.06
2019-03-11T06:17:30.495Z,56.09
2019-03-11T06:20:39.879Z,55.36
2019-03-11T06:23:12.119Z,55.75
2019-03-11T06:25:43.469Z,55.75
2019-03-11T06:28:14.969Z,55.42
2019-03-11T06:30:45.975Z,54.96
2019-03-11T06:33:17.268Z,54.80
2019-03-11T06:35:48.276Z,55.00
2019-03-11T06:38:19.520Z,55.00
2019-03-11T06:40:50.535Z,55.67
2019-03-11T06:43:21.525Z,56.26
2019-03-11T06:45:53.206Z,55.25
2019-03-11T06:48:24.293Z,54.75
2019-03-11T06:50:55.524Z,53.96
2019-03-11T06:53:26.577Z,54.79
2019-03-11T06:55:57.613Z,55.12
2019-03-11T06:58:28.589Z,55.26
2019-03-11T07:00:59.827Z,54.91
2019-03-11T07:03:31.137Z,55.53
2019-03-11T07:06:06.765Z,54.99
2019-03-11T07:08:37.750Z,53.92
2019-03-11T07:11:09.283Z,53.51
2019-03-11T07:13:40.693Z,53.53
2019-03-11T07:16:11.683Z,53.27
2019-03-11T07:18:43.975Z,53.45
2019-03-11T07:21:15.572Z,53.33
2019-03-11T07:23:46.645Z,53.12
2019-03-11T07:26:17.728Z,52.96
2019-03-11T07:28:49.017Z,52.86
2019-03-11T07:31:20.260Z,52.16
2019-03-11T07:33:51.322Z,51.61
2019-03-11T07:36:22.556Z,51.76
2019-03-11T07:38:54.225Z,52.39
2019-03-11T07:41:25.951Z,51.85
2019-03-11T07:43:57.120Z,52.00
2019-03-11T07:46:28.526Z,51.69
2019-03-11T07:48:59.503Z,51.96
2019-03-11T07:51:30.557Z,52.92
2019-03-11T07:54:01.545Z,52.79
2019-03-11T07:56:32.771Z,53.57
2019-03-11T07:59:05.072Z,54.56
2019-03-11T08:01:36.135Z,55.80
2019-03-11T08:04:07.443Z,57.39
2019-03-11T08:06:38.432Z,59.83
2019-03-11T08:09:10.802Z,61.83
2019-03-11T08:11:41.790Z,64.55
2019-03-11T08:14:13.073Z,64.77
2019-03-11T08:16:44.048Z,65.93
2019-03-11T08:19:15.083Z,65.84
2019-03-11T08:21:46.406Z,65.69
2019-03-11T08:24:17.957Z,66.61
2019-03-11T08:26:49.228Z,67.58
2019-03-11T08:29:20.536Z,68.43
2019-03-11T08:31:51.876Z,67.64
2019-03-11T08:34:23.367Z,67.22
2019-03-11T08:36:54.348Z,67.12
2019-03-11T08:39:26.496Z,67.92
2019-03-11T08:41:57.525Z,66.26
2019-03-11T08:44:28.570Z,64.77
2019-03-11T08:47:00.067Z,63.37
2019-03-11T08:49:31.316Z,62.35
2019-03-11T08:52:02.379Z,62.31
2019-03-11T08:54:33.619Z,60.17
2019-03-11T08:57:05.581Z,61.54
2019-03-11T08:59:36.552Z,61.19
2019-03-11T09:02:07.965Z,59.89
2019-03-11T09:04:39.016Z,57.72
2019-03-11T09:07:10.010Z,56.60
2019-03-11T09:09:41.755Z,57.54
2019-03-11T09:12:12.965Z,56.76
2019-03-11T09:14:44.498Z,55.69
2019-03-11T09:17:15.569Z,56.54
2019-03-11T09:19:46.575Z,55.37
2019-03-11T09:22:17.806Z,56.12
2019-03-11T09:24:48.793Z,55.82
2019-03-11T09:27:20.129Z,56.12
2019-03-11T09:29:51.172Z,55.58
2019-03-11T09:32:22.424Z,56.54
2019-03-11T09:34:54.056Z,55.79
2019-03-11T09:37:25.362Z,54.72
2019-03-11T09:39:56.575Z,55.39
2019-03-11T09:42:27.564Z,56.35
2019-03-11T09:44:59.138Z,55.57
2019-03-11T09:47:30.397Z,54.24
2019-03-11T09:50:01.748Z,54.25
2019-03-11T09:52:32.737Z,54.65
2019-03-11T09:55:03.783Z,54.63
2019-03-11T09:57:35.445Z,53.11
2019-03-11T10:00:14.169Z,53.45
2019-03-11T10:02:52.430Z,52.07
2019-03-11T10:05:18.411Z,52.25
2019-03-11T10:07:49.377Z,50.58
2019-03-11T10:10:20.904Z,51.14
2019-03-11T10:12:52.028Z,50.22
2019-03-11T10:15:23.155Z,51.15
2019-03-11T10:17:54.625Z,52.87
2019-03-11T10:20:25.965Z,50.85
2019-03-11T10:22:56.969Z,49.16
2019-03-11T10:25:28.173Z,49.56
2019-03-11T10:27:59.330Z,49.38
2019-03-11T10:30:30.524Z,48.16
2019-03-11T10:33:01.622Z,49.31
2019-03-11T10:35:33.301Z,48.54
2019-03-11T10:38:05.705Z,49.29
2019-03-11T10:40:36.932Z,50.79
2019-03-11T10:43:08.113Z,48.74
2019-03-11T10:45:39.133Z,49.59
2019-03-11T10:48:10.538Z,48.69
2019-03-11T10:50:41.903Z,48.34
2019-03-11T10:53:12.888Z,48.99
2019-03-11T10:55:44.008Z,48.77
2019-03-11T10:58:15.325Z,50.39
2019-03-11T11:00:46.672Z,49.06
2019-03-11T11:03:18.352Z,49.29
2019-03-11T11:05:49.312Z,49.08
2019-03-11T11:08:20.697Z,46.84
2019-03-11T11:10:51.678Z,46.65
2019-03-11T11:13:22.698Z,47.53
2019-03-11T11:15:53.729Z,47.38
2019-03-11T11:18:24.786Z,47.73
2019-03-11T11:20:55.829Z,48.92
2019-03-11T11:23:27.345Z,49.06
2019-03-11T11:25:58.749Z,47.73
2019-03-11T11:28:29.797Z,47.36
2019-03-11T11:31:00.821Z,48.23
2019-03-11T11:33:32.082Z,47.53
2019-03-11T11:36:03.968Z,49.08
2019-03-11T11:38:35.764Z,47.57
2019-03-11T11:41:06.991Z,46.86
2019-03-11T11:43:38.000Z,48.22
2019-03-11T11:46:09.062Z,48.07
2019-03-11T11:48:40.764Z,48.96
2019-03-11T11:51:11.787Z,48.50
2019-03-11T11:53:42.862Z,47.96
2019-03-11T11:56:14.404Z,48.81
2019-03-11T11:58:46.470Z,48.57
2019-03-11T12:01:17.571Z,51.98
2019-03-11T12:03:48.610Z,51.23
2019-03-11T12:06:19.831Z,51.76
2019-03-11T12:08:50.811Z,51.39
2019-03-11T12:11:23.067Z,50.55
2019-03-11T12:13:56.163Z,50.98
2019-03-11T12:16:27.143Z,51.00
2019-03-11T12:18:58.116Z,50.73
2019-03-11T12:21:35.010Z,49.55
2019-03-11T12:24:35.899Z,49.12
2019-03-11T12:27:07.056Z,48.15
2019-03-11T12:29:38.384Z,46.52
2019-03-11T12:32:10.121Z,45.52
2019-03-11T12:34:41.245Z,48.34
2019-03-11T12:37:12.850Z,47.74
2019-03-11T12:39:44.094Z,46.72
2019-03-11T12:42:15.222Z,45.21
2019-03-11T12:44:46.783Z,46.32
2019-03-11T12:47:17.871Z,47.95
2019-03-11T12:49:49.167Z,48.91
2019-03-11T12:52:20.904Z,47.58
2019-03-11T12:54:52.482Z,47.47
2019-03-11T12:57:24.133Z,47.21
2019-03-11T13:00:16.685Z,46.19
2019-03-11T13:02:47.836Z,44.25
2019-03-11T13:05:20.357Z,44.40
2019-03-11T13:07:51.422Z,43.04
2019-03-11T13:10:22.667Z,43.06
2019-03-11T13:12:54.058Z,43.23
2019-03-11T13:15:25.467Z,42.65
2019-03-11T13:17:56.548Z,41.94
2019-03-11T13:20:31.707Z,42.83
2019-03-11T13:23:02.705Z,42.62
2019-03-11T13:25:34.467Z,42.45
2019-03-11T13:28:06.517Z,43.86
2019-03-11T13:30:37.631Z,43.00
2019-03-11T13:33:08.663Z,42.78
2019-03-11T13:35:39.711Z,43.78
2019-03-11T13:38:10.813Z,45.14
2019-03-11T13:40:41.959Z,43.95
2019-03-11T13:43:13.059Z,43.81
2019-03-11T13:45:44.724Z,44.33
2019-03-11T13:48:16.054Z,43.62
2019-03-11T13:50:47.007Z,43.27
2019-03-11T13:53:17.998Z,43.85
2019-03-11T13:55:49.119Z,42.89
2019-03-11T13:58:20.496Z,44.65
2019-03-11T14:00:56.753Z,44.55
2019-03-11T14:03:24.818Z,45.10
2019-03-11T14:05:56.480Z,45.14
2019-03-11T14:08:28.102Z,46.48
2019-03-11T14:10:59.431Z,45.66
2019-03-11T14:13:30.661Z,45.81
2019-03-11T14:16:02.077Z,45.83
2019-03-11T14:18:33.301Z,45.48
2019-03-11T14:21:04.790Z,45.00
2019-03-11T14:23:36.436Z,44.81
2019-03-11T14:26:08.029Z,44.91
2019-03-11T14:28:39.033Z,46.28
2019-03-11T14:31:10.658Z,45.66
2019-03-11T14:33:41.728Z,45.47
2019-03-11T14:36:13.330Z,46.23
2019-03-11T14:38:44.634Z,46.21
2019-03-11T14:41:15.581Z,46.69
2019-03-11T14:43:46.909Z,46.54
2019-03-11T14:46:18.204Z,46.10
2019-03-11T14:48:49.368Z,47.10
2019-03-11T14:51:20.356Z,47.57
2019-03-11T14:53:51.613Z,47.92
2019-03-11T14:56:23.795Z,46.85
2019-03-11T14:58:54.776Z,46.82
2019-03-11T15:01:25.895Z,46.08
2019-03-11T15:03:57.173Z,45.85
2019-03-11T15:06:28.326Z,44.62
2019-03-11T15:08:59.976Z,43.78
2019-03-11T15:11:31.694Z,44.12
2019-03-11T15:14:02.995Z,43.29
2019-03-11T15:16:34.003Z,43.14
2019-03-11T15:19:06.305Z,42.21
2019-03-11T15:21:37.419Z,42.67
2019-03-11T15:24:09.122Z,42.34
2019-03-11T15:26:40.590Z,42.37
2019-03-11T15:29:12.724Z,42.25
2019-03-11T15:31:43.944Z,42.24
2019-03-11T15:34:15.281Z,42.29
2019-03-11T15:36:46.712Z,43.11
2019-03-11T15:39:17.779Z,41.91
2019-03-11T15:41:49.233Z,42.32
2019-03-11T15:44:20.591Z,42.43
2019-03-11T15:46:52.172Z,42.15
2019-03-11T15:49:23.183Z,42.49
2019-03-11T15:51:55.008Z,43.05
2019-03-11T15:54:25.997Z,43.21
2019-03-11T15:56:57.390Z,43.54
2019-03-11T15:59:28.670Z,48.46
2019-03-11T16:01:59.699Z,50.81
2019-03-11T16:04:30.916Z,52.10
2019-03-11T16:07:01.977Z,52.67
2019-03-11T16:09:33.245Z,54.95
2019-03-11T16:12:04.618Z,54.88
2019-03-11T16:14:36.431Z,54.78
2019-03-11T16:17:07.611Z,53.56
2019-03-11T16:19:38.602Z,53.87
2019-03-11T16:22:09.976Z,54.11
2019-03-11T16:24:41.556Z,53.76
2019-03-11T16:27:12.864Z,52.94
2019-03-11T16:29:44.124Z,52.68
2019-03-11T16:32:37.315Z,51.05
2019-03-11T16:35:07.515Z,50.47
2019-03-11T16:37:38.710Z,49.42
2019-03-11T16:40:10.893Z,48.06
2019-03-11T16:42:43.204Z,49.47
2019-03-11T16:45:14.860Z,49.55
2019-03-11T16:47:45.953Z,48.89
2019-03-11T16:50:17.599Z,47.10
2019-03-11T16:52:49.416Z,47.82
2019-03-11T16:55:23.330Z,47.40
2019-03-11T16:57:54.927Z,47.34
2019-03-11T17:00:30.458Z,46.37
2019-03-11T17:03:02.002Z,46.80
2019-03-11T17:05:33.752Z,46.72
2019-03-11T17:08:04.869Z,47.05
2019-03-11T17:10:36.945Z,46.43
2019-03-11T17:13:08.193Z,46.35
2019-03-11T17:15:39.239Z,46.99
2019-03-11T17:18:10.578Z,46.33
2019-03-11T17:20:41.932Z,46.17
2019-03-11T17:23:13.008Z,46.02
2019-03-11T17:25:44.360Z,46.42
2019-03-11T17:28:17.730Z,46.81
2019-03-11T17:30:48.886Z,46.88
2019-03-11T17:33:19.967Z,46.33
2019-03-11T17:35:51.305Z,46.39
2019-03-11T17:38:22.910Z,46.58
2019-03-11T17:40:53.963Z,46.25
2019-03-11T17:43:25.300Z,46.32
2019-03-11T17:45:56.950Z,46.12
2019-03-11T17:48:28.498Z,46.20
2019-03-11T17:51:00.046Z,46.45
2019-03-11T17:53:32.089Z,46.88
2019-03-11T17:56:03.495Z,46.50
2019-03-11T17:58:34.919Z,46.29
2019-03-11T18:01:07.653Z,46.46
2019-03-11T18:03:39.065Z,46.39
2019-03-11T18:06:11.958Z,46.47
2019-03-11T18:08:44.730Z,46.52
2019-03-11T18:11:16.199Z,46.26
2019-03-11T18:13:47.692Z,46.19
2019-03-11T18:16:19.367Z,45.96
2019-03-11T18:18:51.424Z,46.08
2019-03-11T18:21:23.079Z,45.87
2019-03-11T18:23:54.470Z,46.04
2019-03-11T18:26:26.104Z,46.03
2019-03-11T18:28:57.382Z,45.50
2019-03-11T18:31:29.406Z,45.69
2019-03-11T18:34:00.509Z,45.53
2019-03-11T18:36:31.835Z,45.83
2019-03-11T18:39:03.002Z,46.06
2019-03-11T18:41:37.132Z,45.46
2019-03-11T18:44:08.160Z,45.68
2019-03-11T18:46:39.486Z,45.56
2019-03-11T18:49:10.918Z,45.21
2019-03-11T18:51:43.263Z,45.13
2019-03-11T18:54:14.304Z,45.05
2019-03-11T18:56:45.817Z,45.35
2019-03-11T18:59:16.822Z,45.18
2019-03-11T19:01:48.491Z,44.68
2019-03-11T19:04:19.618Z,44.47
2019-03-11T19:06:51.014Z,44.74
2019-03-11T19:09:22.288Z,44.94
2019-03-11T19:11:53.297Z,45.00
2019-03-11T19:14:24.275Z,44.70
2019-03-11T19:16:55.608Z,45.00
2019-03-11T19:19:26.887Z,45.26
2019-03-11T19:21:58.237Z,45.32
2019-03-11T19:24:29.581Z,45.71
2019-03-11T19:27:00.773Z,45.68
2019-03-11T19:29:32.156Z,44.85
2019-03-11T19:32:04.887Z,45.82
2019-03-11T19:34:37.545Z,44.95
2019-03-11T19:37:08.699Z,45.01
2019-03-11T19:39:39.638Z,44.70
2019-03-11T19:42:10.809Z,45.05
2019-03-11T19:44:42.117Z,44.53
2019-03-11T19:47:13.648Z,44.92
2019-03-11T19:49:44.591Z,44.86
2019-03-11T19:52:16.744Z,45.06
2019-03-11T19:54:48.015Z,44.92
2019-03-11T19:57:19.390Z,44.69
2019-03-11T19:59:50.420Z,44.50
2019-03-11T20:02:24.280Z,45.00
2019-03-11T20:04:54.431Z,45.20
2019-03-11T20:07:26.041Z,45.57
2019-03-11T20:09:57.438Z,45.38
2019-03-11T20:12:28.612Z,45.49
2019-03-11T20:14:59.605Z,45.73
2019-03-11T20:17:31.145Z,45.80
2019-03-11T20:20:02.240Z,45.52
2019-03-11T20:22:33.434Z,45.97
2019-03-11T20:25:05.602Z,46.08
2019-03-11T20:27:37.170Z,46.12
2019-03-11T20:30:14.914Z,45.35
2019-03-11T20:32:46.488Z,46.31
2019-03-11T20:35:18.367Z,46.16
2019-03-11T20:37:51.340Z,45.93
2019-03-11T20:40:22.455Z,45.89
2019-03-11T20:42:53.612Z,46.06
2019-03-11T20:45:24.810Z,46.26
2019-03-11T20:47:56.483Z,46.33
2019-03-11T20:50:28.113Z,46.11
2019-03-11T20:53:00.441Z,46.26
2019-03-11T20:55:34.031Z,46.03
2019-03-11T20:58:04.222Z,46.11
2019-03-11T21:00:35.816Z,45.65
2019-03-11T21:03:08.262Z,46.01
2019-03-11T21:05:39.660Z,46.30
2019-03-11T21:08:10.932Z,46.67
2019-03-11T21:10:42.797Z,46.43
2019-03-11T21:13:15.183Z,46.76
2019-03-11T21:15:46.338Z,46.26
2019-03-11T21:18:17.469Z,46.50
2019-03-11T21:20:49.100Z,46.46
2019-03-11T21:23:20.346Z,46.46
2019-03-11T21:25:51.322Z,46.62
2019-03-11T21:28:24.002Z,47.10
2019-03-11T21:30:55.401Z,47.22
2019-03-11T21:33:27.176Z,47.35
2019-03-11T21:35:58.379Z,47.36
2019-03-11T21:38:29.415Z,47.61
2019-03-11T21:41:00.539Z,47.90
2019-03-11T21:43:32.065Z,47.87
2019-03-11T21:46:03.473Z,48.27
2019-03-11T21:48:35.527Z,48.59
2019-03-11T21:51:07.538Z,48.36
2019-03-11T21:53:39.078Z,48.53
2019-03-11T21:56:10.408Z,48.77
2019-03-11T21:58:41.634Z,49.49
2019-03-11T22:01:13.941Z,49.16
2019-03-11T22:03:45.489Z,49.47
2019-03-11T22:06:16.590Z,49.22
2019-03-11T22:08:48.207Z,49.78
2019-03-11T22:11:19.896Z,49.74
2019-03-11T22:13:51.623Z,49.85
2019-03-11T22:16:23.109Z,49.80
2019-03-11T22:18:54.480Z,49.68
2019-03-11T22:21:25.950Z,49.34
2019-03-11T22:23:57.418Z,49.59
2019-03-11T22:26:28.898Z,49.72
2019-03-11T22:28:59.876Z,49.71
2019-03-11T22:31:31.133Z,49.83
2019-03-11T22:34:02.358Z,50.95
2019-03-11T22:36:33.371Z,50.80
2019-03-11T22:39:05.376Z,50.74
2019-03-11T22:41:37.801Z,50.34
2019-03-11T22:44:09.024Z,50.22
2019-03-11T22:46:40.914Z,50.21
2019-03-11T22:49:12.410Z,50.35
2019-03-11T22:51:44.013Z,50.94
2019-03-11T22:54:15.522Z,51.22
2019-03-11T22:56:46.789Z,51.79
2019-03-11T22:59:17.878Z,51.88
2019-03-11T23:01:53.910Z,51.43
2019-03-11T23:04:25.690Z,51.60
2019-03-11T23:06:56.799Z,52.06
2019-03-11T23:09:28.370Z,52.37
2019-03-11T23:11:59.741Z,51.92
2019-03-11T23:14:31.204Z,52.40
2019-03-11T23:17:02.491Z,52.23
2019-03-11T23:19:33.861Z,52.08
2019-03-11T23:22:04.836Z,51.56
2019-03-11T23:24:36.364Z,51.81
2019-03-11T23:27:07.658Z,51.32
2019-03-11T23:29:39.251Z,51.56
2019-03-11T23:32:11.055Z,51.09
2019-03-11T23:34:43.522Z,51.06
2019-03-11T23:37:14.564Z,51.33
2019-03-11T23:39:45.874Z,51.18
2019-03-11T23:42:17.384Z,50.97
2019-03-11T23:44:48.377Z,50.72
2019-03-11T23:47:19.324Z,50.82
2019-03-11T23:49:50.362Z,50.92
2019-03-11T23:52:21.795Z,51.05
2019-03-11T23:54:52.776Z,50.83
2019-03-11T23:57:24.403Z,50.88
2019-03-11T23:59:55.769Z,50.72
